createdAt,value
2018-07-01T00:00:14.952Z,45.10
2018-07-01T00:05:13.181Z,45.20
2018-07-01T00:10:11.572Z,45.30
2018-07-01T00:12:40.999Z,45.40
2018-07-01T00:15:10.273Z,45.50
2018-07-01T00:17:39.859Z,45.30
2018-07-01T00:20:10.104Z,45.40
2018-07-01T00:25:08.786Z,45.80
2018-07-01T00:27:38.143Z,45.70
2018-07-01T00:30:07.588Z,45.80
2018-07-01T00:32:37.139Z,45.80
2018-07-01T00:35:06.400Z,46.00
2018-07-01T00:37:35.759Z,46.10
2018-07-01T00:40:05.555Z,46.40
2018-07-01T00:42:34.808Z,46.30
2018-07-01T00:45:04.569Z,46.40
2018-07-01T00:47:33.774Z,46.50
2018-07-01T00:50:04.580Z,46.60
2018-07-01T00:52:33.851Z,46.60
2018-07-01T00:55:03.100Z,47.30
2018-07-01T00:57:32.296Z,47.00
2018-07-01T01:00:01.543Z,46.90
2018-07-01T01:02:30.739Z,46.90
2018-07-01T01:04:59.939Z,47.10
2018-07-01T01:07:29.428Z,47.20
2018-07-01T01:09:58.775Z,47.40
2018-07-01T01:12:28.051Z,47.20
2018-07-01T01:14:57.301Z,47.40
2018-07-01T01:17:26.523Z,48.00
2018-07-01T01:19:55.794Z,47.60
2018-07-01T01:22:24.975Z,47.70
2018-07-01T01:24:54.160Z,47.90
2018-07-01T01:29:52.077Z,48.00
2018-07-01T01:32:21.297Z,48.10
2018-07-01T01:34:50.545Z,48.10
2018-07-01T01:39:48.667Z,48.30
2018-07-01T01:42:53.635Z,48.50
2018-07-01T01:45:36.891Z,48.60
2018-07-01T01:48:14.660Z,48.70
2018-07-01T01:50:53.051Z,48.70
2018-07-01T01:53:27.404Z,48.70
2018-07-01T01:57:00.633Z,48.70
2018-07-01T01:59:35.505Z,49.70
2018-07-01T02:02:10.995Z,49.00
2018-07-01T02:08:31.572Z,49.30
2018-07-01T02:11:00.783Z,49.10
2018-07-01T02:13:30.840Z,49.20
2018-07-01T02:16:04.287Z,49.50
2018-07-01T02:18:33.480Z,49.50
2018-07-01T02:21:02.701Z,49.40
2018-07-01T02:23:42.810Z,49.40
2018-07-01T02:26:12.036Z,49.30
2018-07-01T02:28:41.679Z,49.60
2018-07-01T02:33:39.775Z,50.00
2018-07-01T02:36:09.390Z,50.30
2018-07-01T02:38:38.760Z,50.50
2018-07-01T02:41:07.987Z,50.70
2018-07-01T02:43:37.224Z,50.80
2018-07-01T02:46:06.477Z,51.00
2018-07-01T02:51:04.584Z,51.30
2018-07-01T02:53:33.784Z,51.40
2018-07-01T02:56:04.177Z,51.70
2018-07-01T02:58:33.711Z,52.50
2018-07-01T03:01:03.009Z,52.30
2018-07-01T03:03:32.160Z,52.40
2018-07-01T03:06:01.321Z,52.20
2018-07-01T03:08:30.771Z,52.60
2018-07-01T03:11:00.072Z,52.50
2018-07-01T03:13:29.312Z,52.50
2018-07-01T03:15:58.696Z,52.90
2018-07-01T03:20:56.616Z,52.50
2018-07-01T03:23:25.844Z,52.60
2018-07-01T03:25:55.379Z,52.80
2018-07-01T03:30:53.608Z,53.30
2018-07-01T03:33:22.840Z,53.20
2018-07-01T03:35:53.001Z,53.20
2018-07-01T03:38:22.168Z,53.20
2018-07-01T03:40:51.531Z,53.00
2018-07-01T03:43:20.737Z,53.10
2018-07-01T03:45:49.954Z,53.00
2018-07-01T03:48:19.328Z,53.00
2018-07-01T03:50:48.555Z,53.30
2018-07-01T03:53:17.757Z,53.00
2018-07-01T03:55:47.207Z,53.20
2018-07-01T03:58:16.469Z,53.10
2018-07-01T04:00:46.084Z,53.10
2018-07-01T04:03:15.271Z,53.30
2018-07-01T04:05:44.692Z,53.30
2018-07-01T04:08:13.870Z,53.40
2018-07-01T04:10:43.062Z,53.50
2018-07-01T04:13:12.251Z,54.40
2018-07-01T04:15:41.442Z,53.70
2018-07-01T04:18:10.733Z,53.40
2018-07-01T04:20:40.053Z,53.30
2018-07-01T04:23:09.560Z,53.40
2018-07-01T04:25:38.734Z,53.60
2018-07-01T04:28:07.903Z,53.50
2018-07-01T04:30:37.096Z,53.80
2018-07-01T04:33:06.301Z,53.70
2018-07-01T04:35:35.494Z,53.80
2018-07-01T04:38:05.324Z,53.70
2018-07-01T04:40:34.580Z,53.60
2018-07-01T04:43:04.007Z,53.60
2018-07-01T04:45:33.183Z,53.40
2018-07-01T04:50:31.140Z,54.10
2018-07-01T04:53:00.418Z,53.50
2018-07-01T04:55:29.589Z,53.80
2018-07-01T04:57:58.768Z,53.80
2018-07-01T05:00:27.947Z,54.00
2018-07-01T05:02:57.144Z,54.00
2018-07-01T05:05:26.340Z,54.00
2018-07-01T05:07:55.556Z,53.40
2018-07-01T05:10:24.891Z,53.60
2018-07-01T05:12:54.205Z,53.80
2018-07-01T05:15:23.396Z,53.70
2018-07-01T05:17:52.631Z,53.10
2018-07-01T05:20:21.859Z,53.70
2018-07-01T05:22:58.269Z,53.60
2018-07-01T05:25:27.514Z,53.90
2018-07-01T05:27:56.842Z,53.40
2018-07-01T05:30:26.051Z,54.30
2018-07-01T05:32:55.237Z,53.40
2018-07-01T05:35:24.480Z,53.00
2018-07-01T05:37:53.788Z,53.40
2018-07-01T05:40:23.032Z,52.90
2018-07-01T05:42:52.235Z,53.20
2018-07-01T05:45:22.589Z,52.50
2018-07-01T05:47:51.968Z,52.90
2018-07-01T05:50:21.160Z,53.10
2018-07-01T05:52:50.587Z,53.70
2018-07-01T05:55:19.892Z,53.00
2018-07-01T05:57:49.067Z,53.20
2018-07-01T06:00:18.710Z,53.00
2018-07-01T06:02:48.015Z,52.70
2018-07-01T06:05:17.234Z,52.80
2018-07-01T06:07:46.459Z,53.20
2018-07-01T06:10:16.020Z,53.30
2018-07-01T06:12:45.356Z,53.10
2018-07-01T06:15:14.559Z,52.10
2018-07-01T06:17:43.827Z,52.30
2018-07-01T06:22:41.911Z,52.20
2018-07-01T06:25:11.112Z,51.30
2018-07-01T06:27:40.292Z,51.70
2018-07-01T06:30:10.525Z,51.50
2018-07-01T06:32:39.812Z,51.50
2018-07-01T06:35:09.362Z,52.00
2018-07-01T06:37:38.573Z,52.30
2018-07-01T06:40:08.249Z,51.80
2018-07-01T06:42:37.636Z,51.20
2018-07-01T06:45:07.302Z,51.10
2018-07-01T06:47:36.544Z,51.50
2018-07-01T06:50:05.770Z,51.20
2018-07-01T06:52:34.948Z,51.60
2018-07-01T06:57:33.000Z,51.50
2018-07-01T07:00:02.256Z,51.00
2018-07-01T07:02:31.552Z,51.60
2018-07-01T07:05:00.670Z,51.40
2018-07-01T07:07:29.991Z,51.50
2018-07-01T07:12:27.932Z,51.10
2018-07-01T07:17:25.951Z,51.00
2018-07-01T07:19:55.571Z,51.10
2018-07-01T07:22:24.882Z,49.90
2018-07-01T07:24:54.500Z,49.70
2018-07-01T07:27:23.828Z,50.20
2018-07-01T07:29:52.993Z,51.30
2018-07-01T07:32:22.559Z,50.30
2018-07-01T07:34:52.037Z,50.60
2018-07-01T07:37:21.280Z,49.40
2018-07-01T07:39:51.000Z,49.60
2018-07-01T07:42:20.361Z,49.20
2018-07-01T07:44:49.624Z,49.80
2018-07-01T07:47:19.091Z,49.00
2018-07-01T07:49:48.662Z,49.30
2018-07-01T07:52:17.905Z,50.00
2018-07-01T07:54:47.188Z,49.20
2018-07-01T07:57:16.482Z,48.90
2018-07-01T07:59:45.968Z,49.30
2018-07-01T08:02:15.378Z,49.40
2018-07-01T08:04:44.785Z,50.00
2018-07-01T08:07:14.076Z,48.30
2018-07-01T08:09:43.381Z,48.40
2018-07-01T08:12:12.626Z,48.20
2018-07-01T08:14:41.837Z,48.40
2018-07-01T08:17:11.262Z,48.00
2018-07-01T08:19:40.676Z,47.90
2018-07-01T08:22:09.890Z,48.20
2018-07-01T08:24:39.067Z,47.50
2018-07-01T08:27:08.618Z,48.30
2018-07-01T08:29:37.849Z,47.00
2018-07-01T08:32:07.071Z,48.30
2018-07-01T08:34:36.328Z,47.90
2018-07-01T08:37:05.768Z,46.80
2018-07-01T08:39:35.003Z,46.20
2018-07-01T08:42:36.310Z,46.00
2018-07-01T08:45:07.787Z,45.60
2018-07-01T08:47:37.483Z,46.30
2018-07-01T08:50:07.375Z,46.20
2018-07-01T08:55:05.501Z,45.00
2018-07-01T08:57:35.428Z,44.70
2018-07-01T09:00:06.264Z,44.30
2018-07-01T09:02:35.767Z,44.40
2018-07-01T09:05:05.505Z,46.00
2018-07-01T09:07:34.848Z,46.00
2018-07-01T09:10:04.667Z,45.30
2018-07-01T09:12:33.967Z,44.60
2018-07-01T09:17:31.919Z,44.60
2018-07-01T09:20:01.762Z,44.90
2018-07-01T09:22:30.976Z,44.10
2018-07-01T09:25:00.392Z,43.70
2018-07-01T09:27:29.719Z,43.90
2018-07-01T09:30:00.473Z,43.90
2018-07-01T09:32:30.331Z,44.50
2018-07-01T09:35:00.185Z,44.90
2018-07-01T09:37:29.495Z,44.20
2018-07-01T09:39:58.789Z,43.70
2018-07-01T09:42:28.327Z,43.50
2018-07-01T09:44:57.584Z,44.80
2018-07-01T09:47:26.782Z,43.70
2018-07-01T09:49:56.055Z,44.20
2018-07-01T09:52:25.391Z,43.30
2018-07-01T09:54:54.927Z,43.80
2018-07-01T09:57:24.127Z,42.80
2018-07-01T09:59:53.361Z,42.90
2018-07-01T10:02:22.732Z,42.10
2018-07-01T10:04:51.948Z,42.20
2018-07-01T10:07:21.239Z,42.90
2018-07-01T10:09:50.590Z,42.90
2018-07-01T10:12:19.887Z,42.80
2018-07-01T10:14:49.599Z,43.80
2018-07-01T10:17:18.940Z,43.70
2018-07-01T10:19:48.196Z,42.40
2018-07-01T10:22:17.428Z,42.70
2018-07-01T10:24:46.655Z,41.60
2018-07-01T10:27:15.973Z,40.90
2018-07-01T10:29:45.286Z,42.00
2018-07-01T10:32:14.439Z,41.50
2018-07-01T10:34:43.717Z,41.80
2018-07-01T10:37:13.089Z,42.00
2018-07-01T10:39:42.291Z,42.40
2018-07-01T10:42:11.863Z,41.40
2018-07-01T10:44:41.130Z,41.20
2018-07-01T10:47:10.441Z,40.70
2018-07-01T10:49:39.603Z,41.20
2018-07-01T10:52:08.911Z,40.00
2018-07-01T10:54:38.100Z,40.80
2018-07-01T10:57:07.387Z,41.00
2018-07-01T10:59:36.589Z,41.70
2018-07-01T11:02:06.346Z,41.50
2018-07-01T11:04:35.580Z,41.50
2018-07-01T11:07:05.452Z,41.60
2018-07-01T11:09:34.663Z,41.00
2018-07-01T11:12:04.095Z,40.30
2018-07-01T11:14:33.335Z,39.20
2018-07-01T11:17:02.568Z,38.50
2018-07-01T11:19:31.883Z,39.60
2018-07-01T11:22:01.312Z,40.00
2018-07-01T11:24:31.060Z,39.20
2018-07-01T11:27:00.869Z,39.90
2018-07-01T11:29:29.902Z,39.40
2018-07-01T11:31:59.234Z,38.60
2018-07-01T11:34:28.412Z,39.00
2018-07-01T11:36:57.735Z,39.60
2018-07-01T11:39:26.944Z,40.10
2018-07-01T11:41:56.239Z,40.30
2018-07-01T11:44:25.541Z,40.50
2018-07-01T11:46:54.714Z,39.30
2018-07-01T11:49:23.883Z,40.20
2018-07-01T11:51:53.455Z,38.90
2018-07-01T11:54:22.837Z,39.40
2018-07-01T11:56:52.068Z,39.60
2018-07-01T12:01:50.330Z,40.60
2018-07-01T12:04:21.511Z,38.70
2018-07-01T12:06:50.705Z,38.20
2018-07-01T12:09:19.973Z,37.60
2018-07-01T12:11:49.322Z,38.20
2018-07-01T12:14:18.544Z,37.10
2018-07-01T12:16:47.753Z,37.10
2018-07-01T12:19:17.052Z,37.30
2018-07-01T12:22:09.578Z,36.30
2018-07-01T12:24:38.796Z,37.70
2018-07-01T12:27:08.324Z,36.70
2018-07-01T12:32:06.387Z,36.90
2018-07-01T12:34:35.804Z,37.60
2018-07-01T12:37:05.169Z,38.20
2018-07-01T12:39:34.688Z,36.20
2018-07-01T12:42:04.305Z,36.60
2018-07-01T12:44:33.559Z,37.10
2018-07-01T12:47:03.102Z,36.80
2018-07-01T12:49:32.326Z,36.40
2018-07-01T12:52:01.569Z,36.50
2018-07-01T12:54:31.137Z,35.30
2018-07-01T12:57:00.388Z,35.70
2018-07-01T12:59:29.591Z,35.70
2018-07-01T13:01:58.894Z,36.40
2018-07-01T13:04:28.735Z,35.80
2018-07-01T13:06:58.285Z,36.00
2018-07-01T13:09:27.920Z,36.50
2018-07-01T13:11:57.235Z,37.10
2018-07-01T13:14:26.376Z,35.90
2018-07-01T13:16:55.739Z,35.20
2018-07-01T13:19:24.999Z,35.60
2018-07-01T13:21:54.254Z,35.30
2018-07-01T13:24:23.885Z,35.90
2018-07-01T13:26:53.437Z,35.80
2018-07-01T13:29:22.757Z,34.20
2018-07-01T13:31:52.096Z,34.90
2018-07-01T13:34:21.406Z,34.00
2018-07-01T13:36:50.819Z,34.70
2018-07-01T13:39:20.064Z,34.10
2018-07-01T13:41:49.260Z,35.00
2018-07-01T13:46:47.259Z,34.70
2018-07-01T13:49:16.697Z,33.70
2018-07-01T13:51:45.804Z,33.60
2018-07-01T13:54:15.160Z,33.60
2018-07-01T13:56:44.383Z,34.30
2018-07-01T13:59:13.601Z,34.00
2018-07-01T14:01:42.809Z,34.40
2018-07-01T14:04:12.258Z,33.50
2018-07-01T14:06:41.446Z,33.60
2018-07-01T14:09:14.449Z,33.90
2018-07-01T14:11:43.709Z,33.30
2018-07-01T14:14:13.576Z,34.40
2018-07-01T14:16:42.887Z,33.20
2018-07-01T14:19:12.103Z,34.80
2018-07-01T14:21:41.428Z,33.10
2018-07-01T14:24:10.772Z,33.10
2018-07-01T14:26:40.207Z,34.00
2018-07-01T14:29:10.506Z,33.20
2018-07-01T14:31:39.705Z,32.70
2018-07-01T14:34:09.095Z,33.20
2018-07-01T14:36:38.284Z,34.30
2018-07-01T14:39:10.459Z,33.70
2018-07-01T14:41:39.857Z,33.70
2018-07-01T14:44:09.244Z,32.70
2018-07-01T14:46:38.463Z,33.00
2018-07-01T14:49:07.968Z,34.00
2018-07-01T14:54:06.335Z,33.50
2018-07-01T14:56:35.609Z,33.20
2018-07-01T14:59:04.928Z,33.00
2018-07-01T15:01:34.198Z,34.10
2018-07-01T15:04:03.973Z,34.40
2018-07-01T15:06:33.492Z,33.10
2018-07-01T15:09:02.752Z,32.40
2018-07-01T15:11:32.139Z,32.90
2018-07-01T15:14:01.392Z,32.80
2018-07-01T15:16:30.765Z,33.00
2018-07-01T15:19:00.180Z,32.80
2018-07-01T15:21:29.405Z,32.30
2018-07-01T15:23:58.684Z,33.20
2018-07-01T15:26:28.122Z,34.00
2018-07-01T15:28:57.344Z,33.30
2018-07-01T15:31:26.682Z,34.30
2018-07-01T15:33:55.916Z,34.40
2018-07-01T15:36:25.170Z,33.40
2018-07-01T15:38:54.890Z,34.20
2018-07-01T15:41:24.428Z,34.30
2018-07-01T15:43:53.624Z,35.10
2018-07-01T15:46:23.416Z,34.90
2018-07-01T15:48:52.636Z,34.90
2018-07-01T15:51:22.273Z,35.00
2018-07-01T15:53:52.036Z,34.50
2018-07-01T15:56:21.412Z,34.30
2018-07-01T15:58:51.762Z,33.90
2018-07-01T16:01:21.056Z,34.80
2018-07-01T16:03:50.585Z,35.30
2018-07-01T16:06:19.768Z,34.00
2018-07-01T16:08:49.139Z,33.90
2018-07-01T16:11:18.312Z,34.20
2018-07-01T16:13:47.814Z,34.30
2018-07-01T16:16:17.183Z,33.40
2018-07-01T16:18:46.713Z,34.20
2018-07-01T16:21:16.044Z,35.10
2018-07-01T16:23:45.814Z,34.20
2018-07-01T16:26:21.121Z,34.50
2018-07-01T16:28:55.838Z,35.10
2018-07-01T16:31:25.573Z,35.00
2018-07-01T16:33:54.912Z,35.10
2018-07-01T16:36:24.234Z,34.70
2018-07-01T16:38:53.569Z,34.60
2018-07-01T16:41:22.785Z,34.30
2018-07-01T16:43:52.084Z,34.70
2018-07-01T16:46:21.477Z,34.50
2018-07-01T16:48:50.809Z,33.80
2018-07-01T16:51:20.124Z,32.90
2018-07-01T16:53:49.435Z,32.90
2018-07-01T16:56:18.743Z,33.00
2018-07-01T16:58:48.179Z,32.70
2018-07-01T17:01:17.690Z,32.40
2018-07-01T17:03:46.985Z,33.00
2018-07-01T17:06:16.860Z,32.40
2018-07-01T17:08:46.325Z,32.10
2018-07-01T17:11:16.471Z,32.20
2018-07-01T17:13:45.817Z,31.90
2018-07-01T17:16:15.437Z,32.80
2018-07-01T17:18:44.687Z,33.30
2018-07-01T17:21:14.199Z,33.30
2018-07-01T17:23:43.427Z,33.50
2018-07-01T17:26:12.701Z,33.40
2018-07-01T17:28:41.934Z,32.90
2018-07-01T17:31:16.567Z,32.00
2018-07-01T17:33:46.424Z,31.80
2018-07-01T17:36:15.724Z,32.10
2018-07-01T17:38:44.998Z,32.70
2018-07-01T17:41:14.242Z,32.50
2018-07-01T17:43:43.529Z,32.20
2018-07-01T17:46:12.998Z,32.30
2018-07-01T17:48:43.114Z,33.10
2018-07-01T17:51:12.727Z,32.50
2018-07-01T17:53:49.588Z,32.50
2018-07-01T17:56:18.824Z,32.70
2018-07-01T17:58:48.217Z,32.30
2018-07-01T18:01:17.905Z,31.90
2018-07-01T18:03:47.583Z,32.70
2018-07-01T18:06:17.468Z,32.70
2018-07-01T18:08:46.743Z,32.50
2018-07-01T18:11:21.245Z,32.60
2018-07-01T18:13:50.517Z,33.00
2018-07-01T18:16:19.751Z,33.10
2018-07-01T18:18:48.974Z,33.50
2018-07-01T18:21:20.255Z,33.60
2018-07-01T18:28:55.767Z,34.20
2018-07-01T18:31:14.802Z,33.90
2018-07-01T18:33:44.271Z,34.40
2018-07-01T18:36:13.462Z,33.70
2018-07-01T18:38:42.776Z,34.10
2018-07-01T18:41:12.187Z,34.40
2018-07-01T18:43:41.372Z,34.30
2018-07-01T18:46:10.546Z,34.90
2018-07-01T18:48:39.791Z,35.00
2018-07-01T18:51:09.144Z,34.70
2018-07-01T18:53:38.456Z,35.30
2018-07-01T18:56:07.724Z,35.80
2018-07-01T18:58:37.070Z,35.80
2018-07-01T19:01:06.361Z,35.70
2018-07-01T19:06:04.494Z,36.20
2018-07-01T19:08:34.054Z,36.50
2018-07-01T19:11:07.451Z,36.90
2018-07-01T19:13:36.986Z,36.80
2018-07-01T19:16:06.272Z,37.00
2018-07-01T19:18:35.604Z,37.70
2018-07-01T19:21:07.523Z,37.60
2018-07-01T19:26:06.177Z,37.30
2018-07-01T19:28:35.491Z,37.20
2018-07-01T19:31:04.772Z,37.30
2018-07-01T19:33:34.912Z,37.70
2018-07-01T19:36:08.570Z,37.90
2018-07-01T19:38:37.806Z,38.20
2018-07-01T19:41:07.252Z,38.20
2018-07-01T19:43:37.569Z,38.80
2018-07-01T19:46:07.100Z,39.60
2018-07-01T19:48:36.309Z,39.10
2018-07-01T19:51:05.680Z,39.10
2018-07-01T19:53:40.594Z,39.40
2018-07-01T19:56:09.890Z,39.80
2018-07-01T19:58:39.077Z,40.80
2018-07-01T20:01:08.495Z,41.50
2018-07-01T20:06:06.572Z,41.80
2018-07-01T20:08:36.059Z,41.80
2018-07-01T20:11:05.262Z,41.20
2018-07-01T20:13:35.037Z,41.60
2018-07-01T20:16:04.919Z,41.20
2018-07-01T20:18:34.633Z,41.10
2018-07-01T20:21:04.005Z,41.50
2018-07-01T20:23:34.526Z,41.70
2018-07-01T20:26:03.990Z,41.80
2018-07-01T20:31:02.583Z,41.70
2018-07-01T20:33:31.885Z,41.80
2018-07-01T20:36:02.115Z,42.30
2018-07-01T20:38:31.385Z,42.50
2018-07-01T20:41:00.935Z,42.40
2018-07-01T20:43:30.313Z,42.50
2018-07-01T20:45:59.517Z,42.80
2018-07-01T20:48:28.699Z,42.30
2018-07-01T20:50:58.047Z,42.40
2018-07-01T20:53:27.408Z,43.00
2018-07-01T20:55:57.248Z,42.60
2018-07-01T20:58:26.512Z,42.80
2018-07-01T21:00:55.976Z,42.20
2018-07-01T21:03:25.224Z,42.70
2018-07-01T21:05:54.585Z,42.70
2018-07-01T21:08:24.012Z,42.40
2018-07-01T21:10:53.467Z,42.50
2018-07-01T21:13:22.708Z,42.50
2018-07-01T21:15:51.935Z,42.10
2018-07-01T21:18:21.184Z,42.40
2018-07-01T21:20:50.521Z,42.00
2018-07-01T21:23:19.895Z,42.30
2018-07-01T21:25:49.269Z,42.30
2018-07-01T21:28:18.691Z,42.40
2018-07-01T21:30:48.055Z,42.60
2018-07-01T21:33:17.724Z,42.40
2018-07-01T21:35:47.277Z,42.30
2018-07-01T21:38:16.963Z,42.50
2018-07-01T21:40:46.181Z,42.50
2018-07-01T21:43:15.479Z,42.80
2018-07-01T21:45:44.725Z,42.70
2018-07-01T21:48:14.264Z,42.40
2018-07-01T21:50:43.505Z,42.50
2018-07-01T21:53:12.691Z,42.80
2018-07-01T21:55:46.116Z,42.70
2018-07-01T21:58:15.465Z,42.60
2018-07-01T22:00:44.756Z,42.70
2018-07-01T22:03:14.259Z,43.00
2018-07-01T22:05:43.655Z,43.10
2018-07-01T22:08:12.953Z,43.10
2018-07-01T22:11:56.397Z,43.10
2018-07-01T22:14:31.009Z,43.20
2018-07-01T22:17:00.640Z,43.10
2018-07-01T22:19:30.019Z,43.00
2018-07-01T22:21:59.724Z,43.60
2018-07-01T22:24:31.276Z,42.90
2018-07-01T22:27:00.508Z,42.80
2018-07-01T22:29:29.759Z,42.20
2018-07-01T22:31:59.185Z,43.00
2018-07-01T22:34:28.403Z,43.10
2018-07-01T22:36:57.774Z,43.30
2018-07-01T22:39:28.281Z,43.20
2018-07-01T22:41:59.184Z,43.40
2018-07-01T22:44:28.778Z,43.40
2018-07-01T22:46:57.972Z,43.30
2018-07-01T22:49:27.293Z,43.10
2018-07-01T22:51:56.519Z,43.20
2018-07-01T22:54:26.242Z,43.00
2018-07-01T22:56:55.566Z,42.90
2018-07-01T22:59:24.736Z,43.00
2018-07-01T23:03:07.389Z,43.10
2018-07-01T23:05:36.572Z,43.50
2018-07-01T23:08:05.941Z,43.40
2018-07-01T23:10:35.219Z,43.30
2018-07-01T23:13:04.893Z,43.20
2018-07-01T23:15:34.197Z,44.00
2018-07-01T23:18:03.430Z,43.60
2018-07-01T23:20:32.880Z,43.70
2018-07-01T23:23:02.085Z,43.90
2018-07-01T23:25:31.291Z,43.70
2018-07-01T23:28:00.564Z,43.70
2018-07-01T23:30:29.861Z,43.80
2018-07-01T23:32:59.031Z,44.00
2018-07-01T23:35:28.244Z,44.10
2018-07-01T23:37:57.420Z,44.10
2018-07-01T23:40:26.644Z,44.10
2018-07-01T23:42:55.840Z,44.20
2018-07-01T23:45:25.053Z,44.30
2018-07-01T23:47:54.251Z,44.40
2018-07-01T23:52:52.345Z,44.70
2018-07-01T23:55:21.595Z,44.70
2018-07-01T23:57:50.980Z,44.90
